createdAt,value
2023-04-02T00:00:42.598Z,1454.3
2023-04-02T00:02:26.501Z,1456.6
2023-04-02T00:04:10.018Z,1453.4
2023-04-02T00:05:53.890Z,1454.1
2023-04-02T00:07:37.410Z,1454.3
2023-04-02T00:09:21.220Z,1456.2
2023-04-02T00:11:05.008Z,1458.1
2023-04-02T00:12:48.563Z,1454.4
2023-04-02T00:14:32.401Z,1451.4
2023-04-02T00:16:16.060Z,1447.5
2023-04-02T00:17:59.630Z,1445.3
2023-04-02T00:19:43.424Z,1445.3
2023-04-02T00:21:27.104Z,1440.4
2023-04-02T00:23:10.759Z,1438.3
2023-04-02T00:24:54.446Z,1438.2
2023-04-02T00:26:38.241Z,1439.6
2023-04-02T00:28:22.016Z,1439.9
2023-04-02T00:30:05.595Z,1441.9
2023-04-02T00:31:49.473Z,1435.8
2023-04-02T00:33:32.950Z,1433.1
2023-04-02T00:35:16.790Z,1436.8
2023-04-02T00:37:00.361Z,1432.1
2023-04-02T00:38:44.264Z,1429.8
2023-04-02T00:40:27.883Z,1427.4
2023-04-02T00:42:11.634Z,1428.7
2023-04-02T00:43:55.164Z,1429.1
2023-04-02T00:45:38.859Z,1429.1
2023-04-02T00:47:22.771Z,1428.8
2023-04-02T00:49:06.406Z,1425.5
2023-04-02T00:50:50.149Z,1422.1
2023-04-02T00:52:33.888Z,1414.5
2023-04-02T00:54:17.381Z,1413.4
2023-04-02T00:56:01.241Z,1414.5
2023-04-02T00:57:45.031Z,1415.7
2023-04-02T00:59:28.653Z,1419.2
2023-04-02T01:01:12.342Z,1417.3
2023-04-02T01:02:56.059Z,1416
2023-04-02T01:04:39.628Z,1412.6
2023-04-02T01:06:23.360Z,1410.8
2023-04-02T01:08:07.017Z,1406.9
2023-04-02T01:11:34.409Z,1406.3
2023-04-02T01:13:18.269Z,1405.8
2023-04-02T01:15:01.809Z,1400.4
2023-04-02T01:16:45.625Z,1398.5
2023-04-02T01:20:12.991Z,1398.5
2023-04-02T01:21:56.689Z,1396.4
2023-04-02T01:23:40.321Z,1396
2023-04-02T01:25:24.016Z,1400.1
2023-04-02T01:27:07.863Z,1398.8
2023-04-02T01:28:51.572Z,1398.8
2023-04-02T01:30:35.177Z,1399.3
2023-04-02T01:32:18.839Z,1397.8
2023-04-02T01:34:02.528Z,1398.9
2023-04-02T01:35:46.237Z,1398.9
2023-04-02T01:37:30.096Z,1399.7
2023-04-02T01:39:13.752Z,1396.5
2023-04-02T01:40:57.343Z,1401
2023-04-02T01:42:41.166Z,1407.6
2023-04-02T01:44:24.745Z,1401.3
2023-04-02T01:46:08.471Z,1402.3
2023-04-02T01:49:35.984Z,1402
2023-04-02T01:51:19.636Z,1398.1
2023-04-02T01:53:03.269Z,1394.2
2023-04-02T01:54:47.032Z,1393.2
2023-04-02T01:56:30.678Z,1392.2
2023-04-02T01:58:14.411Z,1392.5
2023-04-02T01:59:58.202Z,1393.7
2023-04-02T02:01:41.946Z,1390.3
2023-04-02T02:03:25.474Z,1389.6
2023-04-02T02:05:09.243Z,1390.8
2023-04-02T02:06:53.079Z,1388.6
2023-04-02T02:08:36.769Z,1385
2023-04-02T02:10:20.283Z,1383.1
2023-04-02T02:12:04.010Z,1380.2
2023-04-02T02:13:47.860Z,1377
2023-04-02T02:15:31.489Z,1377.6
2023-04-02T02:17:15.261Z,1379
2023-04-02T02:18:59.008Z,1383.9
2023-04-02T02:20:42.594Z,1383
2023-04-02T02:22:26.308Z,1384.9
2023-04-02T02:24:10.168Z,1384.1
2023-04-02T02:25:53.788Z,1384.2
2023-04-02T02:27:37.427Z,1384.2
2023-04-02T02:29:21.095Z,1387
2023-04-02T02:31:04.763Z,1389.1
2023-04-02T02:32:48.598Z,1383
2023-04-02T02:34:32.136Z,1381.3
2023-04-02T02:36:15.905Z,1377.5
2023-04-02T02:37:59.677Z,1375
2023-04-02T02:39:43.298Z,1377.8
2023-04-02T02:41:26.932Z,1375.3
2023-04-02T02:43:10.741Z,1375.4
2023-04-02T02:44:54.553Z,1376.7
2023-04-02T02:46:38.198Z,1369.8
2023-04-02T02:48:21.931Z,1369.8
2023-04-02T02:50:05.479Z,1369.1
2023-04-02T02:51:49.156Z,1369.6
2023-04-02T02:53:32.863Z,1371.3
2023-04-02T02:55:16.626Z,1371.6
2023-04-02T02:57:00.341Z,1373.4
2023-04-02T02:58:44.021Z,1374.5
2023-04-02T03:00:27.692Z,1376.9
2023-04-02T03:02:11.491Z,1376
2023-04-02T03:03:55.187Z,1369.8
2023-04-02T03:05:38.848Z,1366
2023-04-02T03:07:22.589Z,1368.3
2023-04-02T03:09:06.313Z,1366.4
2023-04-02T03:10:50.039Z,1366.5
2023-04-02T03:12:33.647Z,1364
2023-04-02T03:14:17.378Z,1364.7
2023-04-02T03:16:01.025Z,1368.8
2023-04-02T03:17:44.897Z,1362.2
2023-04-02T03:19:28.583Z,1362.9
2023-04-02T03:21:12.276Z,1356.8
2023-04-02T03:22:55.899Z,1354.4
2023-04-02T03:24:39.607Z,1351.9
2023-04-02T03:26:23.231Z,1354
2023-04-02T03:28:06.924Z,1355.2
2023-04-02T03:29:50.631Z,1353.3
2023-04-02T03:31:34.384Z,1354.8
2023-04-02T03:33:18.259Z,1353
2023-04-02T03:35:01.884Z,1351.5
2023-04-02T03:36:45.530Z,1354.5
2023-04-02T03:38:29.189Z,1357.6
2023-04-02T03:40:12.842Z,1358.5
2023-04-02T03:41:56.725Z,1360.7
2023-04-02T03:43:40.398Z,1361.3
2023-04-02T03:45:24.097Z,1355.7
2023-04-02T03:47:07.819Z,1355.9
2023-04-02T03:48:51.391Z,1356.5
2023-04-02T03:50:35.062Z,1358.7
2023-04-02T03:52:18.844Z,1356.8
2023-04-02T03:54:02.501Z,1355.8
2023-04-02T03:55:46.251Z,1345.1
2023-04-02T03:57:30.080Z,1341.9
2023-04-02T03:59:13.569Z,1344.3
2023-04-02T04:00:57.409Z,1345.4
2023-04-02T04:02:40.991Z,1346.3
2023-04-02T04:04:24.676Z,1344.8
2023-04-02T04:06:08.532Z,1346.1
2023-04-02T04:07:52.154Z,1349.4
2023-04-02T04:09:35.941Z,1348.4
2023-04-02T04:11:19.574Z,1349.4
2023-04-02T04:13:03.239Z,1350.2
2023-04-02T04:14:46.956Z,1351.6
2023-04-02T04:16:30.657Z,1351.4
2023-04-02T04:18:14.446Z,1352.3
2023-04-02T04:19:58.198Z,1348.8
2023-04-02T04:21:41.762Z,1347.8
2023-04-02T04:23:25.576Z,1341.1
2023-04-02T04:25:09.192Z,1339.2
2023-04-02T04:26:52.798Z,1334.8
2023-04-02T04:28:36.491Z,1335.7
2023-04-02T04:30:20.370Z,1335.3
2023-04-02T04:32:03.936Z,1336.3
2023-04-02T04:33:47.657Z,1344
2023-04-02T04:35:31.314Z,1340.6
2023-04-02T04:37:15.059Z,1338.4
2023-04-02T04:38:58.714Z,1340.6
2023-04-02T04:40:42.417Z,1342.2
2023-04-02T04:42:26.147Z,1341.9
2023-04-02T04:44:09.822Z,1337.8
2023-04-02T04:45:53.543Z,1338.8
2023-04-02T04:47:37.254Z,1339.9
2023-04-02T04:49:20.975Z,1340.7
2023-04-02T04:51:04.628Z,1342.3
2023-04-02T04:52:48.335Z,1339
2023-04-02T04:54:32.056Z,1338.5
2023-04-02T04:56:15.744Z,1341.5
2023-04-02T04:57:59.498Z,1342.3
2023-04-02T04:59:43.157Z,1344.1
2023-04-02T05:01:26.844Z,1348.9
2023-04-02T05:03:10.580Z,1347.4
2023-04-02T05:04:54.241Z,1346.7
2023-04-02T05:06:37.996Z,1348.3
2023-04-02T05:08:21.656Z,1348.8
2023-04-02T05:10:05.351Z,1343.4
2023-04-02T05:11:49.079Z,1344.1
2023-04-02T05:13:32.781Z,1344.7
2023-04-02T05:15:16.456Z,1340
2023-04-02T05:17:00.169Z,1338.6
2023-04-02T05:18:43.872Z,1339
2023-04-02T05:20:27.577Z,1340.7
2023-04-02T05:22:11.309Z,1341.3
2023-04-02T05:23:54.971Z,1337.5
2023-04-02T05:25:38.701Z,1337.7
2023-04-02T05:27:22.384Z,1334.6
2023-04-02T05:29:06.086Z,1334.8
2023-04-02T05:30:49.783Z,1334.2
2023-04-02T05:32:33.471Z,1333.9
2023-04-02T05:34:17.180Z,1333.3
2023-04-02T05:36:01.001Z,1332
2023-04-02T05:37:44.594Z,1332.1
2023-04-02T05:39:28.282Z,1331.2
2023-04-02T05:41:12.000Z,1332.5
2023-04-02T05:42:55.691Z,1335.2
2023-04-02T05:44:39.416Z,1333.9
2023-04-02T05:46:23.092Z,1328.3
2023-04-02T05:48:06.795Z,1325.3
2023-04-02T05:49:50.503Z,1325.2
2023-04-02T05:51:34.196Z,1323.3
2023-04-02T05:53:17.939Z,1324
2023-04-02T05:55:01.608Z,1325.5
2023-04-02T05:56:45.315Z,1330
2023-04-02T05:58:29.014Z,1331.9
2023-04-02T06:00:12.746Z,1334.6
2023-04-02T06:01:56.439Z,1336.1
2023-04-02T06:03:40.123Z,1333.1
2023-04-02T06:05:23.882Z,1328.2
2023-04-02T06:07:07.530Z,1327.5
2023-04-02T06:08:51.252Z,1330.2
2023-04-02T06:10:34.936Z,1333.8
2023-04-02T06:12:18.644Z,1335
2023-04-02T06:14:02.347Z,1335
2023-04-02T06:15:46.033Z,1335.8
2023-04-02T06:17:29.738Z,1331.4
2023-04-02T06:19:13.443Z,1335.8
2023-04-02T06:20:57.140Z,1341
2023-04-02T06:22:40.842Z,1342.6
2023-04-02T06:24:24.567Z,1338.1
2023-04-02T06:26:08.263Z,1334.8
2023-04-02T06:27:51.999Z,1337.2
2023-04-02T06:29:35.711Z,1334.8
2023-04-02T06:31:19.358Z,1337.7
2023-04-02T06:33:03.096Z,1334.2
2023-04-02T06:34:46.762Z,1336.3
2023-04-02T06:36:30.462Z,1336.5
2023-04-02T06:38:14.193Z,1336.6
2023-04-02T06:39:57.891Z,1336.8
2023-04-02T06:41:41.648Z,1338.8
2023-04-02T06:43:25.285Z,1339.2
2023-04-02T06:45:09.013Z,1340.6
2023-04-02T06:46:52.731Z,1340.5
2023-04-02T06:48:36.390Z,1338.4
2023-04-02T06:50:20.106Z,1337.5
2023-04-02T06:52:03.866Z,1340.9
2023-04-02T06:53:47.501Z,1341.6
2023-04-02T06:55:31.326Z,1339.5
2023-04-02T06:57:14.890Z,1343.9
2023-04-02T06:58:58.610Z,1344.3
2023-04-02T07:00:42.308Z,1345.8
2023-04-02T07:02:26.005Z,1345
2023-04-02T07:04:09.712Z,1350.8
2023-04-02T07:05:53.542Z,1355.3
2023-04-02T07:07:37.205Z,1358.2
2023-04-02T07:09:20.816Z,1359.4
2023-04-02T07:11:04.525Z,1360.5
2023-04-02T07:12:48.214Z,1362
2023-04-02T07:14:31.915Z,1363.7
2023-04-02T07:16:15.641Z,1363.3
2023-04-02T07:17:59.315Z,1363.9
2023-04-02T07:19:43.074Z,1361.8
2023-04-02T07:21:26.796Z,1361.7
2023-04-02T07:23:10.444Z,1362.8
2023-04-02T07:24:54.126Z,1366.3
2023-04-02T07:26:37.916Z,1366.7
2023-04-02T07:28:21.516Z,1373.5
2023-04-02T07:30:05.234Z,1375.4
2023-04-02T07:31:48.940Z,1373.4
2023-04-02T07:33:32.644Z,1371.2
2023-04-02T07:35:16.362Z,1367.8
2023-04-02T07:37:00.072Z,1364.2
2023-04-02T07:38:43.751Z,1362.1
2023-04-02T07:40:27.459Z,1364.1
2023-04-02T07:42:11.158Z,1364.6
2023-04-02T07:43:54.865Z,1367.4
2023-04-02T07:45:38.562Z,1369.2
2023-04-02T07:47:22.264Z,1368
2023-04-02T07:49:06.018Z,1369.1
2023-04-02T07:50:49.668Z,1372.3
2023-04-02T07:52:33.358Z,1380
2023-04-02T07:54:17.082Z,1390.4
2023-04-02T07:56:00.798Z,1394.2
2023-04-02T07:57:44.617Z,1395.6
2023-04-02T08:01:11.899Z,1396
2023-04-02T08:02:55.590Z,1397.6
2023-04-02T08:04:39.286Z,1394.6
2023-04-02T08:06:23.022Z,1400.2
2023-04-02T08:08:06.698Z,1419.8
2023-04-02T08:09:50.399Z,1426.7
2023-04-02T08:11:34.100Z,1432.3
2023-04-02T08:13:17.801Z,1436.9
2023-04-02T08:15:01.508Z,1435.8
2023-04-02T08:16:45.209Z,1433.6
2023-04-02T08:18:28.941Z,1429.9
2023-04-02T08:20:12.670Z,1420.8
2023-04-02T08:21:56.342Z,1412.9
2023-04-02T08:23:40.029Z,1403.5
2023-04-02T08:25:23.721Z,1396.3
2023-04-02T08:27:07.416Z,1397.5
2023-04-02T08:28:51.129Z,1397.4
2023-04-02T08:30:34.836Z,1397.5
2023-04-02T08:32:18.528Z,1403.7
2023-04-02T08:34:02.233Z,1404.9
2023-04-02T08:35:45.938Z,1412.2
2023-04-02T08:37:29.711Z,1414.5
2023-04-02T08:39:13.355Z,1414.2
2023-04-02T08:40:57.042Z,1412.8
2023-04-02T08:42:40.738Z,1418.4
2023-04-02T08:44:24.450Z,1420.3
2023-04-02T08:46:08.150Z,1421.1
2023-04-02T08:47:51.858Z,1421.1
2023-04-02T08:49:35.776Z,1419.7
2023-04-02T08:51:19.253Z,1421.1
2023-04-02T08:53:03.031Z,1421.9
2023-04-02T08:54:46.693Z,1416.5
2023-04-02T08:56:30.391Z,1416.8
2023-04-02T08:58:14.076Z,1416.3
2023-04-02T08:59:57.881Z,1423.3
2023-04-02T09:01:41.509Z,1424.6
2023-04-02T09:03:25.265Z,1432
2023-04-02T09:05:08.893Z,1436
2023-04-02T09:06:52.600Z,1437.9
2023-04-02T09:08:36.335Z,1437
2023-04-02T09:10:20.057Z,1439
2023-04-02T09:12:03.693Z,1442.4
2023-04-02T09:13:47.400Z,1439.2
2023-04-02T09:15:31.270Z,1443.4
2023-04-02T09:17:14.868Z,1449.1
2023-04-02T09:18:58.527Z,1459
2023-04-02T09:20:42.209Z,1466.1
2023-04-02T09:22:25.908Z,1471.5
2023-04-02T09:24:09.655Z,1478.1
2023-04-02T09:25:53.334Z,1482.8
2023-04-02T09:27:37.022Z,1488.2
2023-04-02T09:29:20.726Z,1490.3
2023-04-02T09:31:04.446Z,1492.2
2023-04-02T09:32:48.128Z,1494.1
2023-04-02T09:34:31.849Z,1494
2023-04-02T09:36:15.517Z,1496.6
2023-04-02T09:37:59.246Z,1497
2023-04-02T09:39:42.929Z,1507.9
2023-04-02T09:41:26.633Z,1508.4
2023-04-02T09:43:10.325Z,1515.3
2023-04-02T09:44:54.088Z,1516.3
2023-04-02T09:46:37.734Z,1514.9
2023-04-02T09:48:21.439Z,1516.5
2023-04-02T09:50:05.157Z,1516.3
2023-04-02T09:51:48.834Z,1510.7
2023-04-02T09:53:32.544Z,1507.9
2023-04-02T09:55:16.237Z,1510.5
2023-04-02T09:56:59.957Z,1509.6
2023-04-02T09:58:43.677Z,1504.7
2023-04-02T10:00:27.361Z,1504.8
2023-04-02T10:02:11.066Z,1506.1
2023-04-02T10:03:54.753Z,1509.2
2023-04-02T10:05:38.621Z,1509.7
2023-04-02T10:07:22.169Z,1508.2
2023-04-02T10:09:05.906Z,1510.4
2023-04-02T10:10:49.649Z,1510.5
2023-04-02T10:12:33.321Z,1508.1
2023-04-02T10:14:16.969Z,1504.7
2023-04-02T10:16:00.863Z,1499.9
2023-04-02T10:17:44.365Z,1497.4
2023-04-02T10:19:28.071Z,1491.3
2023-04-02T10:21:11.829Z,1493.9
2023-04-02T10:22:55.471Z,1498.1
2023-04-02T10:24:39.276Z,1495.7
2023-04-02T10:26:22.881Z,1493.5
2023-04-02T10:28:06.605Z,1491.3
2023-04-02T10:29:50.297Z,1485.3
2023-04-02T10:31:33.985Z,1488.3
2023-04-02T10:33:17.694Z,1488.6
2023-04-02T10:35:01.457Z,1497.1
2023-04-02T10:36:45.102Z,1497.4
2023-04-02T10:38:28.809Z,1495.7
2023-04-02T10:40:12.509Z,1495
2023-04-02T10:41:56.212Z,1495.2
2023-04-02T10:43:39.920Z,1497.7
2023-04-02T10:45:23.719Z,1497.4
2023-04-02T10:47:07.350Z,1493
2023-04-02T10:48:51.090Z,1491.9
2023-04-02T10:50:34.741Z,1493.6
2023-04-02T10:52:18.420Z,1487.3
2023-04-02T10:54:02.127Z,1491.5
2023-04-02T10:55:45.857Z,1496.7
2023-04-02T10:57:29.550Z,1496.8
2023-04-02T10:59:13.250Z,1490.3
2023-04-02T11:00:57.073Z,1493.5
2023-04-02T11:02:40.658Z,1493.4
2023-04-02T11:04:24.358Z,1491.1
2023-04-02T11:06:08.113Z,1488.2
2023-04-02T11:07:51.743Z,1485.3
2023-04-02T11:09:35.458Z,1486.6
2023-04-02T11:11:19.157Z,1489.4
2023-04-02T11:13:02.968Z,1489.9
2023-04-02T11:14:46.562Z,1485.6
2023-04-02T11:16:30.327Z,1487.1
2023-04-02T11:18:13.957Z,1485.4
2023-04-02T11:19:57.696Z,1485.2
2023-04-02T11:21:41.360Z,1485.7
2023-04-02T11:23:25.209Z,1484.1
2023-04-02T11:25:08.770Z,1488.5
2023-04-02T11:26:52.467Z,1491.2
2023-04-02T11:28:36.179Z,1488
2023-04-02T11:30:19.881Z,1487
2023-04-02T11:33:47.286Z,1489.4
2023-04-02T11:35:31.101Z,1486.9
2023-04-02T11:37:14.795Z,1487.9
2023-04-02T11:38:58.529Z,1488.5
2023-04-02T11:40:42.135Z,1487.9
2023-04-02T11:42:25.780Z,1490
2023-04-02T11:44:09.491Z,1487.8
2023-04-02T11:45:53.363Z,1483.4
2023-04-02T11:47:36.964Z,1481
2023-04-02T11:49:20.602Z,1480
2023-04-02T11:51:04.409Z,1480.9
2023-04-02T11:52:48.025Z,1480.7
2023-04-02T11:54:31.705Z,1478.8
2023-04-02T11:56:15.408Z,1480.6
2023-04-02T11:57:59.131Z,1482.6
2023-04-02T11:59:42.800Z,1479
2023-04-02T12:01:26.517Z,1481.1
2023-04-02T12:03:10.213Z,1481.8
2023-04-02T12:04:53.916Z,1483.5
2023-04-02T12:06:37.647Z,1482.7
2023-04-02T12:08:21.479Z,1483.5
2023-04-02T12:11:48.776Z,1483.1
2023-04-02T12:13:32.422Z,1478.7
2023-04-02T12:15:16.127Z,1480.5
2023-04-02T12:16:59.849Z,1477.9
2023-04-02T12:18:43.533Z,1482.4
2023-04-02T12:20:27.395Z,1477.2
2023-04-02T12:22:10.933Z,1471.5
2023-04-02T12:23:54.644Z,1468.9
2023-04-02T12:25:38.342Z,1471.2
2023-04-02T12:27:22.069Z,1469.9
2023-04-02T12:29:05.746Z,1469.8
2023-04-02T12:30:49.462Z,1474.1
2023-04-02T12:32:33.155Z,1477.8
2023-04-02T12:34:16.874Z,1483.6
2023-04-02T12:36:00.570Z,1492.9
2023-04-02T12:37:44.253Z,1485.1
2023-04-02T12:39:27.976Z,1481.3
2023-04-02T12:41:11.658Z,1483.1
2023-04-02T12:42:55.369Z,1483.9
2023-04-02T12:44:39.208Z,1484.3
2023-04-02T12:46:22.768Z,1478.6
2023-04-02T12:48:06.475Z,1471.8
2023-04-02T12:49:50.203Z,1471.1
2023-04-02T12:51:33.886Z,1474.2
2023-04-02T12:53:17.589Z,1474.3
2023-04-02T12:55:01.283Z,1470.8
2023-04-02T12:56:44.990Z,1473.4
2023-04-02T12:58:28.699Z,1476.6
2023-04-02T13:00:12.400Z,1478.1
2023-04-02T13:01:56.100Z,1479.3
2023-04-02T13:03:39.802Z,1481.9
2023-04-02T13:05:23.511Z,1478
2023-04-02T13:07:07.225Z,1477.3
2023-04-02T13:08:50.911Z,1475.3
2023-04-02T13:10:34.772Z,1477.1
2023-04-02T13:12:18.318Z,1473.4
2023-04-02T13:14:02.023Z,1472.4
2023-04-02T13:15:45.725Z,1473.2
2023-04-02T13:17:29.421Z,1471.5
2023-04-02T13:19:13.138Z,1469.7
2023-04-02T13:20:56.838Z,1468.8
2023-04-02T13:22:40.532Z,1466.7
2023-04-02T13:24:24.269Z,1468.8
2023-04-02T13:26:07.936Z,1470.5
2023-04-02T13:27:51.663Z,1474.7
2023-04-02T13:29:35.355Z,1474.8
2023-04-02T13:31:19.059Z,1476.6
2023-04-02T13:33:02.756Z,1476.2
2023-04-02T13:34:46.449Z,1478.2
2023-04-02T13:36:30.155Z,1482.9
2023-04-02T13:38:13.852Z,1483.7
2023-04-02T13:39:57.577Z,1485.7
2023-04-02T13:41:41.274Z,1488.4
2023-04-02T13:43:24.958Z,1482.4
2023-04-02T13:45:08.660Z,1480.5
2023-04-02T13:46:52.364Z,1479.3
2023-04-02T13:48:36.107Z,1480.2
2023-04-02T13:50:19.798Z,1482.5
2023-04-02T13:52:03.502Z,1479.4
2023-04-02T13:53:47.175Z,1480.4
2023-04-02T13:55:30.901Z,1486.2
2023-04-02T13:57:14.580Z,1486.5
2023-04-02T13:58:58.271Z,1489.8
2023-04-02T14:00:41.999Z,1497.6
2023-04-02T14:02:25.705Z,1499.6
2023-04-02T14:05:53.089Z,1504.3
2023-04-02T14:07:36.783Z,1512.8
2023-04-02T14:09:20.490Z,1517.6
2023-04-02T14:11:04.205Z,1519.6
2023-04-02T14:12:47.915Z,1522
2023-04-02T14:14:31.595Z,1528.1
2023-04-02T14:16:15.309Z,1536.5
2023-04-02T14:17:59.007Z,1549.1
2023-04-02T14:19:42.708Z,1561.7
2023-04-02T14:21:26.421Z,1571.3
2023-04-02T14:23:10.109Z,1595.2
2023-04-02T14:24:53.817Z,1640.8
2023-04-02T14:26:37.590Z,1666.7
2023-04-02T14:28:21.223Z,1681
2023-04-02T14:30:04.975Z,1694.2
2023-04-02T14:31:48.631Z,1706.3
2023-04-02T14:33:32.329Z,1745.8
2023-04-02T14:36:59.750Z,1778.4
2023-04-02T14:38:43.432Z,1784.1
2023-04-02T14:40:27.131Z,1785.6
2023-04-02T14:42:10.843Z,1790.4
2023-04-02T14:43:54.559Z,1796
2023-04-02T14:45:38.247Z,1804.4
2023-04-02T14:47:21.948Z,1838.6
2023-04-02T14:49:05.654Z,1850.2
2023-04-02T14:50:49.373Z,1844.2
2023-04-02T14:52:33.088Z,1838.7
2023-04-02T14:54:16.777Z,1841
2023-04-02T14:56:00.465Z,1843.8
2023-04-02T14:57:44.159Z,1844.2
2023-04-02T14:59:27.861Z,1842.7
2023-04-02T15:01:11.582Z,1844.8
2023-04-02T15:02:55.275Z,1851
2023-04-02T15:04:38.967Z,1850.7
2023-04-02T15:06:22.693Z,1850.2
2023-04-02T15:08:06.380Z,1848.9
2023-04-02T15:09:50.078Z,1847.9
2023-04-02T15:11:33.789Z,1851.1
2023-04-02T15:13:17.473Z,1855
2023-04-02T15:15:01.306Z,1857.4
2023-04-02T15:16:44.882Z,1854.3
2023-04-02T15:18:28.585Z,1852
2023-04-02T15:20:12.299Z,1849.8
2023-04-02T15:21:55.990Z,1843.9
2023-04-02T15:23:39.699Z,1841.3
2023-04-02T15:25:23.394Z,1842.7
2023-04-02T15:27:07.094Z,1842
2023-04-02T15:28:50.808Z,1839.2
2023-04-02T15:30:34.594Z,1835
2023-04-02T15:32:18.263Z,1835.3
2023-04-02T15:34:01.927Z,1835.6
2023-04-02T15:35:45.675Z,1836.7
2023-04-02T15:37:29.317Z,1833.9
2023-04-02T15:39:13.042Z,1829.5
2023-04-02T15:40:56.706Z,1821.3
2023-04-02T15:42:40.437Z,1807.6
2023-04-02T15:44:24.195Z,1809.7
2023-04-02T15:46:07.895Z,1806
2023-04-02T15:47:51.537Z,1794.3
2023-04-02T15:49:35.227Z,1773.6
2023-04-02T15:51:19.011Z,1760
2023-04-02T15:53:02.633Z,1749.4
2023-04-02T15:54:46.351Z,1743.5
2023-04-02T15:56:30.098Z,1730.5
2023-04-02T15:58:13.899Z,1727.1
2023-04-02T15:59:57.460Z,1726.9
2023-04-02T16:01:41.241Z,1725.7
2023-04-02T16:03:24.882Z,1726
2023-04-02T16:05:08.546Z,1721.1
2023-04-02T16:06:52.263Z,1717.6
2023-04-02T16:08:35.965Z,1716
2023-04-02T16:10:19.665Z,1706
2023-04-02T16:12:03.444Z,1699.8
2023-04-02T16:13:47.091Z,1693.6
2023-04-02T16:15:30.784Z,1685.4
2023-04-02T16:17:14.490Z,1662.8
2023-04-02T16:18:58.253Z,1659.6
2023-04-02T16:20:41.884Z,1656.2
2023-04-02T16:22:25.587Z,1656.6
2023-04-02T16:24:09.295Z,1657.5
2023-04-02T16:25:53.005Z,1655.2
2023-04-02T16:27:36.698Z,1655.3
2023-04-02T16:29:20.413Z,1657.3
2023-04-02T16:31:04.113Z,1657.4
2023-04-02T16:32:47.793Z,1660.7
2023-04-02T16:34:31.515Z,1659.4
2023-04-02T16:36:15.206Z,1662.9
2023-04-02T16:37:58.928Z,1658.3
2023-04-02T16:39:42.622Z,1652.6
2023-04-02T16:41:26.324Z,1648.8
2023-04-02T16:43:10.029Z,1657.6
2023-04-02T16:46:37.426Z,1661
2023-04-02T16:48:21.124Z,1658.5
2023-04-02T16:50:04.834Z,1656.5
2023-04-02T16:51:48.555Z,1655.8
2023-04-02T16:53:32.270Z,1653.5
2023-04-02T16:55:15.935Z,1652.1
2023-04-02T16:56:59.636Z,1644.1
2023-04-02T16:58:43.355Z,1638
2023-04-02T17:00:27.177Z,1630.7
2023-04-02T17:02:10.747Z,1630.7
2023-04-02T17:03:54.444Z,1627.6
2023-04-02T17:05:38.219Z,1622.4
2023-04-02T17:07:21.853Z,1618.2
2023-04-02T17:09:05.573Z,1606.3
2023-04-02T17:10:49.252Z,1599.6
2023-04-02T17:12:33.193Z,1594.2
2023-04-02T17:14:16.655Z,1592.6
2023-04-02T17:16:00.381Z,1589.7
2023-04-02T17:17:44.062Z,1588.6
2023-04-02T17:19:27.771Z,1587.8
2023-04-02T17:21:11.471Z,1579.8
2023-04-02T17:22:55.261Z,1578.8
2023-04-02T17:24:38.943Z,1582.9
2023-04-02T17:26:22.606Z,1580
2023-04-02T17:28:06.272Z,1580.8
2023-04-02T17:29:49.983Z,1580.2
2023-04-02T17:31:33.685Z,1585
2023-04-02T17:33:17.385Z,1587.2
2023-04-02T17:35:01.126Z,1586
2023-04-02T17:36:44.789Z,1585
2023-04-02T17:38:28.490Z,1582.3
2023-04-02T17:40:12.199Z,1581
2023-04-02T17:41:55.903Z,1577.3
2023-04-02T17:43:39.608Z,1574
2023-04-02T17:45:23.354Z,1572
2023-04-02T17:47:07.155Z,1574.2
2023-04-02T17:48:50.756Z,1576.3
2023-04-02T17:50:34.415Z,1579.3
2023-04-02T17:52:18.128Z,1579.6
2023-04-02T17:54:01.820Z,1579.2
2023-04-02T17:55:45.598Z,1574.9
2023-04-02T17:57:29.230Z,1580.3
2023-04-02T17:59:12.919Z,1581.1
2023-04-02T18:00:56.628Z,1577.6
2023-04-02T18:02:40.338Z,1581.6
2023-04-02T18:04:24.023Z,1587.1
2023-04-02T18:06:07.734Z,1590.2
2023-04-02T18:07:51.436Z,1600.4
2023-04-02T18:09:35.144Z,1603.3
2023-04-02T18:11:18.872Z,1601
2023-04-02T18:13:02.609Z,1597.1
2023-04-02T18:14:46.328Z,1602.9
2023-04-02T18:16:29.990Z,1601.8
2023-04-02T18:18:13.655Z,1600.8
2023-04-02T18:19:57.361Z,1606.9
2023-04-02T18:21:41.062Z,1621.1
2023-04-02T18:23:24.761Z,1633.8
2023-04-02T18:25:08.465Z,1636.9
2023-04-02T18:26:52.195Z,1641.3
2023-04-02T18:28:35.876Z,1646.8
2023-04-02T18:30:19.566Z,1650.6
2023-04-02T18:32:03.269Z,1653.3
2023-04-02T18:33:46.986Z,1662
2023-04-02T18:35:30.677Z,1669.2
2023-04-02T18:37:14.458Z,1675
2023-04-02T18:38:58.084Z,1673.7
2023-04-02T18:40:41.794Z,1673.5
2023-04-02T18:42:25.475Z,1673
2023-04-02T18:44:09.190Z,1669.8
2023-04-02T18:45:52.879Z,1665.1
2023-04-02T18:47:36.586Z,1663.4
2023-04-02T18:49:20.296Z,1665
2023-04-02T18:51:04.065Z,1667.6
2023-04-02T18:52:47.717Z,1674.1
2023-04-02T18:54:31.441Z,1675
2023-04-02T18:56:15.161Z,1662.3
2023-04-02T18:57:58.980Z,1663.1
2023-04-02T18:59:42.637Z,1666.5
2023-04-02T19:01:26.504Z,1679.7
2023-04-02T19:03:09.992Z,1685.4
2023-04-02T19:04:53.602Z,1685.4
2023-04-02T19:06:37.473Z,1687
2023-04-02T19:08:21.224Z,1687.1
2023-04-02T19:10:04.755Z,1694.4
2023-04-02T19:11:48.559Z,1707.8
2023-04-02T19:13:32.255Z,1725.8
2023-04-02T19:15:15.997Z,1742
2023-04-02T19:16:59.710Z,1750.4
2023-04-02T19:18:43.390Z,1764.1
2023-04-02T19:20:26.906Z,1784.4
2023-04-02T19:22:10.626Z,1801.4
2023-04-02T19:23:54.547Z,1805.9
2023-04-02T19:25:38.197Z,1808.3
2023-04-02T19:27:21.763Z,1808.5
2023-04-02T19:29:05.440Z,1807.3
2023-04-02T19:30:49.312Z,1806.9
2023-04-02T19:32:32.979Z,1803.9
2023-04-02T19:34:16.709Z,1802.6
2023-04-02T19:36:00.437Z,1797.3
2023-04-02T19:37:44.090Z,1791.9
2023-04-02T19:39:27.793Z,1795.3
2023-04-02T19:41:11.520Z,1796.5
2023-04-02T19:42:55.227Z,1799
2023-04-02T19:44:38.919Z,1797.8
2023-04-02T19:46:22.589Z,1800.1
2023-04-02T19:48:06.335Z,1804.9
2023-04-02T19:49:50.011Z,1806.3
2023-04-02T19:51:33.799Z,1810.8
2023-04-02T19:53:17.461Z,1804.8
2023-04-02T19:55:01.152Z,1808
2023-04-02T19:56:44.889Z,1812.8
2023-04-02T19:58:28.518Z,1810.7
2023-04-02T20:00:12.063Z,1806.2
2023-04-02T20:01:55.949Z,1798.2
2023-04-02T20:03:39.675Z,1793.2
2023-04-02T20:05:23.320Z,1795.9
2023-04-02T20:07:07.048Z,1802.7
2023-04-02T20:08:50.686Z,1810
2023-04-02T20:10:34.441Z,1811.1
2023-04-02T20:12:18.102Z,1816.7
2023-04-02T20:14:01.869Z,1819.9
2023-04-02T20:15:45.581Z,1820.9
2023-04-02T20:17:29.210Z,1815.3
2023-04-02T20:19:12.863Z,1803.3
2023-04-02T20:20:56.668Z,1801.1
2023-04-02T20:22:40.412Z,1802.1
2023-04-02T20:24:24.130Z,1803.5
2023-04-02T20:26:07.763Z,1805.8
2023-04-02T20:27:51.502Z,1810.3
2023-04-02T20:29:35.018Z,1810.2
2023-04-02T20:31:18.717Z,1811.4
2023-04-02T20:33:02.561Z,1810.3
2023-04-02T20:34:46.259Z,1814.7
2023-04-02T20:36:30.005Z,1807.1
2023-04-02T20:38:13.757Z,1784.3
2023-04-02T20:39:57.345Z,1774.2
2023-04-02T20:41:41.100Z,1758.5
2023-04-02T20:43:24.639Z,1748.1
2023-04-02T20:45:08.449Z,1743.5
2023-04-02T20:46:52.257Z,1738.5
2023-04-02T20:48:35.914Z,1737.1
2023-04-02T20:50:19.568Z,1734.7
2023-04-02T20:52:03.359Z,1729.7
2023-04-02T20:53:46.931Z,1722.1
2023-04-02T20:55:30.774Z,1713.2
2023-04-02T20:57:14.390Z,1704.7
2023-04-02T20:58:58.138Z,1704.2
2023-04-02T21:00:41.814Z,1700.7
2023-04-02T21:02:25.527Z,1700
2023-04-02T21:04:09.300Z,1695.7
2023-04-02T21:05:52.942Z,1691
2023-04-02T21:07:36.615Z,1690.9
2023-04-02T21:09:20.393Z,1688.3
2023-04-02T21:11:04.034Z,1679.5
2023-04-02T21:12:47.777Z,1676.6
2023-04-02T21:14:31.479Z,1672.5
2023-04-02T21:16:15.221Z,1666.2
2023-04-02T21:17:58.810Z,1664.4
2023-04-02T21:19:42.601Z,1662.7
2023-04-02T21:21:26.272Z,1656.2
2023-04-02T21:23:09.804Z,1648.6
2023-04-02T21:24:53.702Z,1640.1
2023-04-02T21:26:37.460Z,1637.4
2023-04-02T21:28:21.059Z,1636.6
2023-04-02T21:30:04.769Z,1630.3
2023-04-02T21:31:48.313Z,1621.8
2023-04-02T21:33:32.188Z,1613.1
2023-04-02T21:35:15.895Z,1609.8
2023-04-02T21:36:59.626Z,1609.8
2023-04-02T21:38:43.111Z,1610.4
2023-04-02T21:40:26.982Z,1610.9
2023-04-02T21:42:10.612Z,1607.5
2023-04-02T21:43:54.400Z,1603.9
2023-04-02T21:45:38.082Z,1602.7
2023-04-02T21:47:21.816Z,1603.8
2023-04-02T21:49:05.522Z,1603.3
2023-04-02T21:50:49.195Z,1591.8
2023-04-02T21:52:32.891Z,1578.4
2023-04-02T21:54:16.608Z,1578.3
2023-04-02T21:56:00.295Z,1580
2023-04-02T21:57:43.998Z,1576.5